Cromwell, Indiana
Current Conditions -  °F | °C
As of 12:53 AM on Friday 31 Oct 2014 (Local Time) from KGSH Reporting Station
Overcast Overcast  
Wind Chill: 42°   Ceiling: 7000
Heat Index: 44°   Visibility: 9mi
Dew Point: 38°   Wind: 5mph
Humidity: 79%   Direction: 220°SW
Pressure: 30.01"   Gusts: NA
Location:  41.4°N, 85.62°W
Report Text: KGSH 310453Z AUTO 22004KT 9SM OVC070 07/03 A3001 RMK AO2 SLP167 T00670033 401110061
Loading
Personal Weather Stations






























Interactive Weather Map
Tropical Storm Tracking
New forecast layout! Learn more

10-Day Weather Forecast

Advertisements
Track Severe Weather on mobile